sensor_id;sensor_type;location;lat;lon;timestamp;temperature;humidity
20827;DHT22;10574;52.508;13.236;2022-09-09T00:03:31;15.20;99.90
20827;DHT22;10574;52.508;13.236;2022-09-09T00:06:16;15.20;99.90
20827;DHT22;10574;52.508;13.236;2022-09-09T00:11:46;15.10;99.90
20827;DHT22;10574;52.508;13.236;2022-09-09T00:17:00;15.00;99.90
20827;DHT22;10574;52.508;13.236;2022-09-09T00:19:53;15.00;99.90
20827;DHT22;10574;52.508;13.236;2022-09-09T00:22:21;14.90;99.90
20827;DHT22;10574;52.508;13.236;2022-09-09T00:24:54;14.90;99.90
20827;DHT22;10574;52.508;13.236;2022-09-09T00:27:38;14.90;99.90
20827;DHT22;10574;52.508;13.236;2022-09-09T00:30:20;14.80;99.90
20827;DHT22;10574;52.508;13.236;2022-09-09T00:33:05;14.80;99.90
20827;DHT22;10574;52.508;13.236;2022-09-09T00:35:33;14.70;99.90
20827;DHT22;10574;52.508;13.236;2022-09-09T00:38:08;14.70;99.90
20827;DHT22;10574;52.508;13.236;2022-09-09T00:40:34;14.70;99.90
20827;DHT22;10574;52.508;13.236;2022-09-09T00:43:21;14.70;99.90
20827;DHT22;10574;52.508;13.236;2022-09-09T00:49:07;14.70;99.90
20827;DHT22;10574;52.508;13.236;2022-09-09T00:54:47;14.70;99.90
20827;DHT22;10574;52.508;13.236;2022-09-09T01:02:51;14.60;99.90
20827;DHT22;10574;52.508;13.236;2022-09-09T01:05:24;14.60;99.90
20827;DHT22;10574;52.508;13.236;2022-09-09T01:07:48;14.50;99.90
20827;DHT22;10574;52.508;13.236;2022-09-09T01:10:44;14.60;99.90
20827;DHT22;10574;52.508;13.236;2022-09-09T01:13:23;14.60;99.90
20827;DHT22;10574;52.508;13.236;2022-09-09T01:15:53;14.50;99.90
20827;DHT22;10574;52.508;13.236;2022-09-09T01:18:23;14.50;99.90
20827;DHT22;10574;52.508;13.236;2022-09-09T01:26:44;14.40;99.90
20827;DHT22;10574;52.508;13.236;2022-09-09T01:29:18;14.40;99.90
20827;DHT22;10574;52.508;13.236;2022-09-09T01:34:45;14.40;99.90
20827;DHT22;10574;52.508;13.236;2022-09-09T01:37:13;14.40;99.90
20827;DHT22;10574;52.508;13.236;2022-09-09T01:39:43;14.40;99.90
20827;DHT22;10574;52.508;13.236;2022-09-09T01:42:14;14.30;99.90
20827;DHT22;10574;52.508;13.236;2022-09-09T01:44:42;14.30;99.90
20827;DHT22;10574;52.508;13.236;2022-09-09T01:47:10;14.30;99.90
20827;DHT22;10574;52.508;13.236;2022-09-09T01:49:37;14.30;99.90
20827;DHT22;10574;52.508;13.236;2022-09-09T01:52:05;14.30;99.90
20827;DHT22;10574;52.508;13.236;2022-09-09T01:54:35;14.30;99.90
20827;DHT22;10574;52.508;13.236;2022-09-09T01:57:31;14.30;99.90
20827;DHT22;10574;52.508;13.236;2022-09-09T02:00:04;14.20;99.90
20827;DHT22;10574;52.508;13.236;2022-09-09T02:08:31;14.10;99.90
20827;DHT22;10574;52.508;13.236;2022-09-09T02:13:25;14.10;99.90
20827;DHT22;10574;52.508;13.236;2022-09-09T02:18:30;14.10;99.90
20827;DHT22;10574;52.508;13.236;2022-09-09T02:20:58;14.10;99.90
20827;DHT22;10574;52.508;13.236;2022-09-09T02:23:26;14.10;99.90
20827;DHT22;10574;52.508;13.236;2022-09-09T02:25:56;14.10;99.90
20827;DHT22;10574;52.508;13.236;2022-09-09T02:28:26;14.00;99.90
20827;DHT22;10574;52.508;13.236;2022-09-09T02:30:55;14.10;99.90
20827;DHT22;10574;52.508;13.236;2022-09-09T02:33:28;14.10;99.90
20827;DHT22;10574;52.508;13.236;2022-09-09T02:35:56;14.00;99.90
20827;DHT22;10574;52.508;13.236;2022-09-09T02:38:29;14.00;99.90
20827;DHT22;10574;52.508;13.236;2022-09-09T02:40:58;14.00;99.90
20827;DHT22;10574;52.508;13.236;2022-09-09T02:43:30;14.00;99.90
20827;DHT22;10574;52.508;13.236;2022-09-09T02:48:55;13.90;99.90
20827;DHT22;10574;52.508;13.236;2022-09-09T02:51:08;14.00;99.90
20827;DHT22;10574;52.508;13.236;2022-09-09T02:56:38;13.90;99.90
20827;DHT22;10574;52.508;13.236;2022-09-09T02:59:06;13.90;99.90
20827;DHT22;10574;52.508;13.236;2022-09-09T03:01:34;13.90;99.90
20827;DHT22;10574;52.508;13.236;2022-09-09T03:04:02;13.90;99.90
20827;DHT22;10574;52.508;13.236;2022-09-09T03:06:31;13.80;99.90
20827;DHT22;10574;52.508;13.236;2022-09-09T03:08:59;13.80;99.90
20827;DHT22;10574;52.508;13.236;2022-09-09T03:11:28;13.80;99.90
20827;DHT22;10574;52.508;13.236;2022-09-09T03:13:56;13.80;99.90
20827;DHT22;10574;52.508;13.236;2022-09-09T03:16:24;13.80;99.90
20827;DHT22;10574;52.508;13.236;2022-09-09T03:18:58;13.80;99.90
20827;DHT22;10574;52.508;13.236;2022-09-09T03:21:26;13.80;99.90
20827;DHT22;10574;52.508;13.236;2022-09-09T03:23:53;13.80;99.90
20827;DHT22;10574;52.508;13.236;2022-09-09T03:26:22;13.70;99.90
20827;DHT22;10574;52.508;13.236;2022-09-09T03:28:49;13.70;99.90
20827;DHT22;10574;52.508;13.236;2022-09-09T03:31:18;13.70;99.90
20827;DHT22;10574;52.508;13.236;2022-09-09T03:33:48;13.70;99.90
20827;DHT22;10574;52.508;13.236;2022-09-09T03:36:16;13.70;99.90
20827;DHT22;10574;52.508;13.236;2022-09-09T03:38:44;13.70;99.90
20827;DHT22;10574;52.508;13.236;2022-09-09T03:41:12;13.70;99.90
20827;DHT22;10574;52.508;13.236;2022-09-09T03:43:39;13.70;99.90
20827;DHT22;10574;52.508;13.236;2022-09-09T03:46:08;13.70;99.90
20827;DHT22;10574;52.508;13.236;2022-09-09T03:48:36;13.60;99.90
20827;DHT22;10574;52.508;13.236;2022-09-09T03:51:03;13.60;99.90
20827;DHT22;10574;52.508;13.236;2022-09-09T03:53:31;13.60;99.90
20827;DHT22;10574;52.508;13.236;2022-09-09T03:55:59;13.60;99.90
20827;DHT22;10574;52.508;13.236;2022-09-09T03:58:28;13.60;99.90
20827;DHT22;10574;52.508;13.236;2022-09-09T04:01:07;13.60;99.90
20827;DHT22;10574;52.508;13.236;2022-09-09T04:03:41;13.60;99.90
20827;DHT22;10574;52.508;13.236;2022-09-09T04:06:10;13.60;99.90
20827;DHT22;10574;52.508;13.236;2022-09-09T04:08:39;13.60;99.90
20827;DHT22;10574;52.508;13.236;2022-09-09T04:11:08;13.70;99.90
20827;DHT22;10574;52.508;13.236;2022-09-09T04:13:37;13.70;99.90
20827;DHT22;10574;52.508;13.236;2022-09-09T04:16:10;13.60;99.90
20827;DHT22;10574;52.508;13.236;2022-09-09T04:18:39;13.60;99.90
20827;DHT22;10574;52.508;13.236;2022-09-09T04:21:09;13.60;99.90
20827;DHT22;10574;52.508;13.236;2022-09-09T04:23:38;13.60;99.90
20827;DHT22;10574;52.508;13.236;2022-09-09T04:26:06;13.60;99.90
20827;DHT22;10574;52.508;13.236;2022-09-09T04:28:36;13.60;99.90
20827;DHT22;10574;52.508;13.236;2022-09-09T04:31:17;13.60;99.90
20827;DHT22;10574;52.508;13.236;2022-09-09T04:33:40;13.60;99.90
20827;DHT22;10574;52.508;13.236;2022-09-09T04:36:08;13.60;99.90
20827;DHT22;10574;52.508;13.236;2022-09-09T04:38:36;13.60;99.90
20827;DHT22;10574;52.508;13.236;2022-09-09T04:41:04;13.60;99.90
20827;DHT22;10574;52.508;13.236;2022-09-09T04:43:31;13.60;99.90
20827;DHT22;10574;52.508;13.236;2022-09-09T04:45:59;13.60;99.90
20827;DHT22;10574;52.508;13.236;2022-09-09T04:48:27;13.60;99.90
20827;DHT22;10574;52.508;13.236;2022-09-09T04:50:57;13.60;99.90
20827;DHT22;10574;52.508;13.236;2022-09-09T04:53:28;13.60;99.90
20827;DHT22;10574;52.508;13.236;2022-09-09T04:56:17;13.60;99.90
20827;DHT22;10574;52.508;13.236;2022-09-09T04:58:45;13.60;99.90
20827;DHT22;10574;52.508;13.236;2022-09-09T05:01:20;13.60;99.90
20827;DHT22;10574;52.508;13.236;2022-09-09T05:03:50;13.60;99.90
20827;DHT22;10574;52.508;13.236;2022-09-09T05:06:21;13.70;99.90
20827;DHT22;10574;52.508;13.236;2022-09-09T05:08:51;13.70;99.90
20827;DHT22;10574;52.508;13.236;2022-09-09T05:11:24;13.70;99.90
20827;DHT22;10574;52.508;13.236;2022-09-09T05:13:52;13.70;99.90
20827;DHT22;10574;52.508;13.236;2022-09-09T05:16:26;13.80;99.90
20827;DHT22;10574;52.508;13.236;2022-09-09T05:18:56;13.90;99.90
20827;DHT22;10574;52.508;13.236;2022-09-09T05:21:29;13.90;99.90
20827;DHT22;10574;52.508;13.236;2022-09-09T05:24:02;14.00;99.90
20827;DHT22;10574;52.508;13.236;2022-09-09T05:26:30;14.10;99.90
20827;DHT22;10574;52.508;13.236;2022-09-09T05:29:04;14.30;99.90
20827;DHT22;10574;52.508;13.236;2022-09-09T05:31:31;15.10;99.90
20827;DHT22;10574;52.508;13.236;2022-09-09T05:33:59;16.40;99.90
20827;DHT22;10574;52.508;13.236;2022-09-09T05:36:27;17.50;99.90
20827;DHT22;10574;52.508;13.236;2022-09-09T05:38:54;18.80;99.90
20827;DHT22;10574;52.508;13.236;2022-09-09T05:41:22;19.80;99.90
20827;DHT22;10574;52.508;13.236;2022-09-09T05:43:50;20.60;99.90
20827;DHT22;10574;52.508;13.236;2022-09-09T05:46:20;20.40;99.90
20827;DHT22;10574;52.508;13.236;2022-09-09T05:48:49;20.00;99.90
20827;DHT22;10574;52.508;13.236;2022-09-09T05:51:23;19.70;99.90
20827;DHT22;10574;52.508;13.236;2022-09-09T05:53:51;19.00;99.90
20827;DHT22;10574;52.508;13.236;2022-09-09T05:56:23;18.20;99.90
20827;DHT22;10574;52.508;13.236;2022-09-09T05:58:54;17.60;99.90
20827;DHT22;10574;52.508;13.236;2022-09-09T06:01:32;17.10;99.90
20827;DHT22;10574;52.508;13.236;2022-09-09T06:03:55;16.80;99.90
20827;DHT22;10574;52.508;13.236;2022-09-09T06:06:26;16.50;99.90
20827;DHT22;10574;52.508;13.236;2022-09-09T06:08:55;16.20;99.90
20827;DHT22;10574;52.508;13.236;2022-09-09T06:11:26;16.00;99.90
20827;DHT22;10574;52.508;13.236;2022-09-09T06:13:54;15.80;99.90
20827;DHT22;10574;52.508;13.236;2022-09-09T06:16:24;15.70;99.90
20827;DHT22;10574;52.508;13.236;2022-09-09T06:18:53;15.50;99.90
20827;DHT22;10574;52.508;13.236;2022-09-09T06:21:27;15.40;99.90
20827;DHT22;10574;52.508;13.236;2022-09-09T06:23:57;15.40;99.90
20827;DHT22;10574;52.508;13.236;2022-09-09T06:26:27;15.40;99.90
20827;DHT22;10574;52.508;13.236;2022-09-09T06:28:55;15.40;99.90
20827;DHT22;10574;52.508;13.236;2022-09-09T06:31:26;15.50;99.90
20827;DHT22;10574;52.508;13.236;2022-09-09T06:33:59;15.60;99.90
20827;DHT22;10574;52.508;13.236;2022-09-09T06:36:32;15.60;99.90
20827;DHT22;10574;52.508;13.236;2022-09-09T06:39:04;15.60;99.90
20827;DHT22;10574;52.508;13.236;2022-09-09T06:41:32;15.60;99.90
20827;DHT22;10574;52.508;13.236;2022-09-09T06:44:00;15.60;99.90
20827;DHT22;10574;52.508;13.236;2022-09-09T06:46:29;15.50;99.90
20827;DHT22;10574;52.508;13.236;2022-09-09T06:48:59;15.50;99.90
20827;DHT22;10574;52.508;13.236;2022-09-09T06:51:34;15.50;99.90
20827;DHT22;10574;52.508;13.236;2022-09-09T06:54:02;15.80;99.90
20827;DHT22;10574;52.508;13.236;2022-09-09T06:56:32;16.20;99.90
20827;DHT22;10574;52.508;13.236;2022-09-09T06:59:07;17.00;99.90
20827;DHT22;10574;52.508;13.236;2022-09-09T07:01:36;18.00;99.90
20827;DHT22;10574;52.508;13.236;2022-09-09T07:04:04;18.90;99.90
20827;DHT22;10574;52.508;13.236;2022-09-09T07:06:36;19.40;99.90
20827;DHT22;10574;52.508;13.236;2022-09-09T07:09:08;19.70;99.90
20827;DHT22;10574;52.508;13.236;2022-09-09T07:15:01;19.40;99.90
20827;DHT22;10574;52.508;13.236;2022-09-09T07:17:54;19.10;99.90
20827;DHT22;10574;52.508;13.236;2022-09-09T07:23:49;19.00;99.90
20827;DHT22;10574;52.508;13.236;2022-09-09T07:26:56;19.00;99.90
20827;DHT22;10574;52.508;13.236;2022-09-09T07:29:25;19.10;99.90
20827;DHT22;10574;52.508;13.236;2022-09-09T07:31:58;19.30;99.90
20827;DHT22;10574;52.508;13.236;2022-09-09T07:34:28;19.60;99.90
20827;DHT22;10574;52.508;13.236;2022-09-09T07:37:00;19.80;99.90
20827;DHT22;10574;52.508;13.236;2022-09-09T07:42:36;19.90;99.90
20827;DHT22;10574;52.508;13.236;2022-09-09T07:48:04;19.80;99.90
20827;DHT22;10574;52.508;13.236;2022-09-09T07:51:11;19.70;99.90
20827;DHT22;10574;52.508;13.236;2022-09-09T07:53:40;19.80;99.90
20827;DHT22;10574;52.508;13.236;2022-09-09T07:56:10;19.70;99.90
20827;DHT22;10574;52.508;13.236;2022-09-09T07:58:39;19.60;99.90
20827;DHT22;10574;52.508;13.236;2022-09-09T08:01:09;19.70;99.90
20827;DHT22;10574;52.508;13.236;2022-09-09T08:03:38;19.80;99.90
20827;DHT22;10574;52.508;13.236;2022-09-09T08:06:08;19.90;99.90
20827;DHT22;10574;52.508;13.236;2022-09-09T08:08:36;20.30;99.90
20827;DHT22;10574;52.508;13.236;2022-09-09T08:11:08;20.70;99.90
20827;DHT22;10574;52.508;13.236;2022-09-09T08:13:36;20.70;99.90
20827;DHT22;10574;52.508;13.236;2022-09-09T08:16:06;20.60;99.90
20827;DHT22;10574;52.508;13.236;2022-09-09T08:18:35;20.70;99.90
20827;DHT22;10574;52.508;13.236;2022-09-09T08:21:10;20.70;99.90
20827;DHT22;10574;52.508;13.236;2022-09-09T08:23:40;20.50;99.90
20827;DHT22;10574;52.508;13.236;2022-09-09T08:26:16;20.20;99.90
20827;DHT22;10574;52.508;13.236;2022-09-09T08:28:45;20.10;99.90
20827;DHT22;10574;52.508;13.236;2022-09-09T08:31:20;20.20;99.90
20827;DHT22;10574;52.508;13.236;2022-09-09T08:33:44;20.40;99.90
20827;DHT22;10574;52.508;13.236;2022-09-09T08:36:37;20.50;99.90
20827;DHT22;10574;52.508;13.236;2022-09-09T08:39:06;20.80;99.90
20827;DHT22;10574;52.508;13.236;2022-09-09T08:50:35;20.00;99.90
20827;DHT22;10574;52.508;13.236;2022-09-09T08:53:29;19.90;99.90
20827;DHT22;10574;52.508;13.236;2022-09-09T08:56:08;19.70;99.90
20827;DHT22;10574;52.508;13.236;2022-09-09T08:59:13;19.80;99.90
20827;DHT22;10574;52.508;13.236;2022-09-09T09:08:36;19.80;99.90
20827;DHT22;10574;52.508;13.236;2022-09-09T09:14:41;19.50;99.90
20827;DHT22;10574;52.508;13.236;2022-09-09T09:17:21;19.60;99.90
20827;DHT22;10574;52.508;13.236;2022-09-09T09:19:46;19.50;99.90
20827;DHT22;10574;52.508;13.236;2022-09-09T09:24:56;19.60;99.90
20827;DHT22;10574;52.508;13.236;2022-09-09T09:27:47;20.00;99.90
20827;DHT22;10574;52.508;13.236;2022-09-09T09:30:17;20.40;99.90
20827;DHT22;10574;52.508;13.236;2022-09-09T09:33:02;20.50;99.90
20827;DHT22;10574;52.508;13.236;2022-09-09T09:35:30;20.60;99.90
20827;DHT22;10574;52.508;13.236;2022-09-09T09:37:59;20.70;99.90
20827;DHT22;10574;52.508;13.236;2022-09-09T09:40:27;20.60;99.90
20827;DHT22;10574;52.508;13.236;2022-09-09T09:42:57;20.80;99.90
20827;DHT22;10574;52.508;13.236;2022-09-09T09:45:33;21.00;99.90
20827;DHT22;10574;52.508;13.236;2022-09-09T09:48:03;21.00;99.90
20827;DHT22;10574;52.508;13.236;2022-09-09T09:50:32;21.20;99.90
20827;DHT22;10574;52.508;13.236;2022-09-09T09:53:03;21.50;99.90
20827;DHT22;10574;52.508;13.236;2022-09-09T09:55:33;21.70;99.90
20827;DHT22;10574;52.508;13.236;2022-09-09T09:58:13;21.60;99.90
20827;DHT22;10574;52.508;13.236;2022-09-09T10:00:36;21.80;99.90
20827;DHT22;10574;52.508;13.236;2022-09-09T10:03:18;22.00;99.90
20827;DHT22;10574;52.508;13.236;2022-09-09T10:05:45;22.20;99.90
20827;DHT22;10574;52.508;13.236;2022-09-09T10:08:15;21.90;99.90
20827;DHT22;10574;52.508;13.236;2022-09-09T10:10:56;21.70;99.90
20827;DHT22;10574;52.508;13.236;2022-09-09T10:16:45;21.80;99.90
20827;DHT22;10574;52.508;13.236;2022-09-09T10:19:29;21.80;99.90
20827;DHT22;10574;52.508;13.236;2022-09-09T10:21:56;22.00;99.90
20827;DHT22;10574;52.508;13.236;2022-09-09T10:24:30;22.10;99.90
20827;DHT22;10574;52.508;13.236;2022-09-09T10:40:38;22.30;99.90
20827;DHT22;10574;52.508;13.236;2022-09-09T10:49:23;22.80;99.90
20827;DHT22;10574;52.508;13.236;2022-09-09T10:52:15;22.90;99.90
20827;DHT22;10574;52.508;13.236;2022-09-09T10:57:37;23.30;99.90
20827;DHT22;10574;52.508;13.236;2022-09-09T11:00:13;23.40;99.90
20827;DHT22;10574;52.508;13.236;2022-09-09T11:02:36;23.70;99.90
20827;DHT22;10574;52.508;13.236;2022-09-09T11:05:14;23.90;99.90
20827;DHT22;10574;52.508;13.236;2022-09-09T11:08:00;23.90;99.90
20827;DHT22;10574;52.508;13.236;2022-09-09T11:10:40;23.50;99.90
20827;DHT22;10574;52.508;13.236;2022-09-09T11:13:24;23.60;99.90
20827;DHT22;10574;52.508;13.236;2022-09-09T11:15:54;23.80;99.90
20827;DHT22;10574;52.508;13.236;2022-09-09T11:18:22;23.90;99.90
20827;DHT22;10574;52.508;13.236;2022-09-09T11:20:57;24.00;99.90
20827;DHT22;10574;52.508;13.236;2022-09-09T11:23:42;24.00;99.90
20827;DHT22;10574;52.508;13.236;2022-09-09T11:26:13;23.90;99.90
20827;DHT22;10574;52.508;13.236;2022-09-09T11:40:24;24.10;99.90
20827;DHT22;10574;52.508;13.236;2022-09-09T11:43:12;24.30;99.90
20827;DHT22;10574;52.508;13.236;2022-09-09T11:46:15;24.30;99.90
20827;DHT22;10574;52.508;13.236;2022-09-09T11:49:28;24.20;99.90
20827;DHT22;10574;52.508;13.236;2022-09-09T11:55:28;23.70;99.90
20827;DHT22;10574;52.508;13.236;2022-09-09T12:06:26;24.50;99.90
20827;DHT22;10574;52.508;13.236;2022-09-09T12:09:05;24.30;99.90
20827;DHT22;10574;52.508;13.236;2022-09-09T12:11:29;24.20;99.90
20827;DHT22;10574;52.508;13.236;2022-09-09T12:14:34;24.00;99.90
20827;DHT22;10574;52.508;13.236;2022-09-09T12:17:24;24.00;99.90
20827;DHT22;10574;52.508;13.236;2022-09-09T12:20:23;23.50;99.90
20827;DHT22;10574;52.508;13.236;2022-09-09T12:23:19;23.20;99.90
20827;DHT22;10574;52.508;13.236;2022-09-09T12:29:10;23.50;99.90
20827;DHT22;10574;52.508;13.236;2022-09-09T12:31:56;23.60;99.90
20827;DHT22;10574;52.508;13.236;2022-09-09T12:39:49;23.80;99.90
20827;DHT22;10574;52.508;13.236;2022-09-09T12:42:20;23.90;99.90
20827;DHT22;10574;52.508;13.236;2022-09-09T12:44:59;23.80;99.90
20827;DHT22;10574;52.508;13.236;2022-09-09T12:50:01;23.50;99.90
20827;DHT22;10574;52.508;13.236;2022-09-09T12:52:35;23.30;99.90
20827;DHT22;10574;52.508;13.236;2022-09-09T12:55:05;23.30;99.90
20827;DHT22;10574;52.508;13.236;2022-09-09T12:57:36;23.30;99.90
20827;DHT22;10574;52.508;13.236;2022-09-09T13:02:46;23.20;99.90
20827;DHT22;10574;52.508;13.236;2022-09-09T13:05:31;23.10;99.90
20827;DHT22;10574;52.508;13.236;2022-09-09T13:08:05;23.10;99.90
20827;DHT22;10574;52.508;13.236;2022-09-09T13:10:43;23.10;99.90
20827;DHT22;10574;52.508;13.236;2022-09-09T13:13:19;23.10;99.90
20827;DHT22;10574;52.508;13.236;2022-09-09T13:15:57;22.90;99.90
20827;DHT22;10574;52.508;13.236;2022-09-09T13:22:14;22.70;99.90
20827;DHT22;10574;52.508;13.236;2022-09-09T13:24:45;22.70;99.90
20827;DHT22;10574;52.508;13.236;2022-09-09T13:32:36;22.40;99.90
20827;DHT22;10574;52.508;13.236;2022-09-09T13:35:22;22.50;99.90
20827;DHT22;10574;52.508;13.236;2022-09-09T13:37:36;22.50;99.90
20827;DHT22;10574;52.508;13.236;2022-09-09T13:40:28;22.40;99.90
20827;DHT22;10574;52.508;13.236;2022-09-09T13:43:02;22.30;99.90
20827;DHT22;10574;52.508;13.236;2022-09-09T13:45:33;22.30;99.90
20827;DHT22;10574;52.508;13.236;2022-09-09T13:48:17;22.40;99.90
20827;DHT22;10574;52.508;13.236;2022-09-09T13:51:21;22.50;99.90
20827;DHT22;10574;52.508;13.236;2022-09-09T13:56:26;22.90;99.90
20827;DHT22;10574;52.508;13.236;2022-09-09T13:59:06;23.10;99.90
20827;DHT22;10574;52.508;13.236;2022-09-09T14:01:25;23.40;99.90
20827;DHT22;10574;52.508;13.236;2022-09-09T14:04:04;23.30;99.90
20827;DHT22;10574;52.508;13.236;2022-09-09T14:06:44;23.40;99.90
20827;DHT22;10574;52.508;13.236;2022-09-09T14:09:15;23.40;99.90
20827;DHT22;10574;52.508;13.236;2022-09-09T14:11:43;23.30;99.90
20827;DHT22;10574;52.508;13.236;2022-09-09T14:14:15;23.20;99.90
20827;DHT22;10574;52.508;13.236;2022-09-09T14:16:54;23.20;99.90
20827;DHT22;10574;52.508;13.236;2022-09-09T14:19:18;23.10;99.90
20827;DHT22;10574;52.508;13.236;2022-09-09T14:21:46;22.90;99.90
20827;DHT22;10574;52.508;13.236;2022-09-09T14:24:14;22.90;99.90
20827;DHT22;10574;52.508;13.236;2022-09-09T14:26:42;22.80;99.90
20827;DHT22;10574;52.508;13.236;2022-09-09T14:29:09;22.90;99.90
20827;DHT22;10574;52.508;13.236;2022-09-09T14:31:37;22.90;99.90
20827;DHT22;10574;52.508;13.236;2022-09-09T14:34:08;23.00;99.90
20827;DHT22;10574;52.508;13.236;2022-09-09T14:36:40;23.20;99.90
20827;DHT22;10574;52.508;13.236;2022-09-09T14:39:08;23.30;99.90
20827;DHT22;10574;52.508;13.236;2022-09-09T14:41:36;23.40;99.90
20827;DHT22;10574;52.508;13.236;2022-09-09T14:44:04;23.50;99.90
20827;DHT22;10574;52.508;13.236;2022-09-09T14:46:32;23.50;99.90
20827;DHT22;10574;52.508;13.236;2022-09-09T14:49:00;23.40;99.90
20827;DHT22;10574;52.508;13.236;2022-09-09T14:51:30;23.30;99.90
20827;DHT22;10574;52.508;13.236;2022-09-09T14:53:59;23.30;99.90
20827;DHT22;10574;52.508;13.236;2022-09-09T14:56:30;23.20;99.90
20827;DHT22;10574;52.508;13.236;2022-09-09T14:58:59;23.20;99.90
20827;DHT22;10574;52.508;13.236;2022-09-09T15:01:31;23.10;99.90
20827;DHT22;10574;52.508;13.236;2022-09-09T15:04:03;23.10;99.90
20827;DHT22;10574;52.508;13.236;2022-09-09T15:06:33;23.00;99.90
20827;DHT22;10574;52.508;13.236;2022-09-09T15:09:03;23.00;99.90
20827;DHT22;10574;52.508;13.236;2022-09-09T15:11:37;22.90;99.90
20827;DHT22;10574;52.508;13.236;2022-09-09T15:14:08;22.90;99.90
20827;DHT22;10574;52.508;13.236;2022-09-09T15:16:37;22.90;99.90
20827;DHT22;10574;52.508;13.236;2022-09-09T15:19:05;22.90;99.90
20827;DHT22;10574;52.508;13.236;2022-09-09T15:21:35;22.80;99.90
20827;DHT22;10574;52.508;13.236;2022-09-09T15:24:05;22.80;99.90
20827;DHT22;10574;52.508;13.236;2022-09-09T15:26:34;22.90;99.90
20827;DHT22;10574;52.508;13.236;2022-09-09T15:29:04;22.80;99.90
20827;DHT22;10574;52.508;13.236;2022-09-09T15:31:32;22.70;99.90
20827;DHT22;10574;52.508;13.236;2022-09-09T15:34:04;22.80;99.90
20827;DHT22;10574;52.508;13.236;2022-09-09T15:39:06;22.60;99.90
20827;DHT22;10574;52.508;13.236;2022-09-09T15:41:35;22.40;99.90
20827;DHT22;10574;52.508;13.236;2022-09-09T15:44:03;22.30;99.90
20827;DHT22;10574;52.508;13.236;2022-09-09T15:46:37;22.30;99.90
20827;DHT22;10574;52.508;13.236;2022-09-09T15:49:17;22.30;99.90
20827;DHT22;10574;52.508;13.236;2022-09-09T15:51:47;22.20;99.90
20827;DHT22;10574;52.508;13.236;2022-09-09T15:54:18;22.20;99.90
20827;DHT22;10574;52.508;13.236;2022-09-09T15:56:50;22.10;99.90
20827;DHT22;10574;52.508;13.236;2022-09-09T15:59:17;22.00;99.90
20827;DHT22;10574;52.508;13.236;2022-09-09T16:01:44;22.00;99.90
20827;DHT22;10574;52.508;13.236;2022-09-09T16:04:13;21.90;99.90
20827;DHT22;10574;52.508;13.236;2022-09-09T16:06:43;21.90;99.90
20827;DHT22;10574;52.508;13.236;2022-09-09T16:09:11;21.90;99.90
20827;DHT22;10574;52.508;13.236;2022-09-09T16:11:39;21.80;99.90
20827;DHT22;10574;52.508;13.236;2022-09-09T16:14:07;21.70;99.90
20827;DHT22;10574;52.508;13.236;2022-09-09T16:16:36;21.70;99.90
20827;DHT22;10574;52.508;13.236;2022-09-09T16:19:06;21.60;99.90
20827;DHT22;10574;52.508;13.236;2022-09-09T16:21:38;21.60;99.90
20827;DHT22;10574;52.508;13.236;2022-09-09T16:24:07;21.50;99.90
20827;DHT22;10574;52.508;13.236;2022-09-09T16:26:41;21.40;99.90
20827;DHT22;10574;52.508;13.236;2022-09-09T16:29:13;21.40;99.90
20827;DHT22;10574;52.508;13.236;2022-09-09T16:31:41;21.40;99.90
20827;DHT22;10574;52.508;13.236;2022-09-09T16:34:10;21.30;99.90
20827;DHT22;10574;52.508;13.236;2022-09-09T16:36:48;21.20;99.90
20827;DHT22;10574;52.508;13.236;2022-09-09T16:39:18;21.10;99.90
20827;DHT22;10574;52.508;13.236;2022-09-09T16:41:47;21.00;99.90
20827;DHT22;10574;52.508;13.236;2022-09-09T16:44:17;20.80;99.90
20827;DHT22;10574;52.508;13.236;2022-09-09T16:46:47;20.70;99.90
20827;DHT22;10574;52.508;13.236;2022-09-09T16:49:15;20.70;99.90
20827;DHT22;10574;52.508;13.236;2022-09-09T16:51:46;20.80;99.90
20827;DHT22;10574;52.508;13.236;2022-09-09T16:54:15;20.80;99.90
20827;DHT22;10574;52.508;13.236;2022-09-09T16:56:45;20.80;99.90
20827;DHT22;10574;52.508;13.236;2022-09-09T16:59:19;20.80;99.90
20827;DHT22;10574;52.508;13.236;2022-09-09T17:01:45;20.70;99.90
20827;DHT22;10574;52.508;13.236;2022-09-09T17:04:16;20.70;99.90
20827;DHT22;10574;52.508;13.236;2022-09-09T17:06:46;20.70;99.90
20827;DHT22;10574;52.508;13.236;2022-09-09T17:09:16;20.70;99.90
20827;DHT22;10574;52.508;13.236;2022-09-09T17:11:45;20.60;99.90
20827;DHT22;10574;52.508;13.236;2022-09-09T17:14:16;20.50;99.90
20827;DHT22;10574;52.508;13.236;2022-09-09T17:16:45;20.40;99.90
20827;DHT22;10574;52.508;13.236;2022-09-09T17:19:13;20.40;99.90
20827;DHT22;10574;52.508;13.236;2022-09-09T17:21:41;20.30;99.90
20827;DHT22;10574;52.508;13.236;2022-09-09T17:24:10;20.30;99.90
20827;DHT22;10574;52.508;13.236;2022-09-09T17:26:38;20.10;99.90
20827;DHT22;10574;52.508;13.236;2022-09-09T17:29:06;19.90;99.90
20827;DHT22;10574;52.508;13.236;2022-09-09T17:31:34;19.70;99.90
20827;DHT22;10574;52.508;13.236;2022-09-09T17:34:02;19.70;99.90
20827;DHT22;10574;52.508;13.236;2022-09-09T17:36:33;19.70;99.90
20827;DHT22;10574;52.508;13.236;2022-09-09T17:39:06;19.70;99.90
20827;DHT22;10574;52.508;13.236;2022-09-09T17:41:33;19.50;99.90
20827;DHT22;10574;52.508;13.236;2022-09-09T17:44:02;19.40;99.90
20827;DHT22;10574;52.508;13.236;2022-09-09T17:46:34;19.40;99.90
20827;DHT22;10574;52.508;13.236;2022-09-09T17:49:04;19.30;99.90
20827;DHT22;10574;52.508;13.236;2022-09-09T17:51:34;19.20;99.90
20827;DHT22;10574;52.508;13.236;2022-09-09T17:54:08;19.20;99.90
20827;DHT22;10574;52.508;13.236;2022-09-09T17:56:35;19.10;99.90
20827;DHT22;10574;52.508;13.236;2022-09-09T17:59:05;19.00;99.90
20827;DHT22;10574;52.508;13.236;2022-09-09T18:01:36;18.90;99.90
20827;DHT22;10574;52.508;13.236;2022-09-09T18:04:07;18.80;99.90
20827;DHT22;10574;52.508;13.236;2022-09-09T18:06:40;18.80;99.90
20827;DHT22;10574;52.508;13.236;2022-09-09T18:09:11;18.80;99.90
20827;DHT22;10574;52.508;13.236;2022-09-09T18:11:44;18.70;99.90
20827;DHT22;10574;52.508;13.236;2022-09-09T18:14:15;18.70;99.90
20827;DHT22;10574;52.508;13.236;2022-09-09T18:16:43;18.70;99.90
20827;DHT22;10574;52.508;13.236;2022-09-09T18:19:13;18.70;99.90
20827;DHT22;10574;52.508;13.236;2022-09-09T18:21:43;18.60;99.90
20827;DHT22;10574;52.508;13.236;2022-09-09T18:24:12;18.60;99.90